Time;durP1;ratioP1;P1;durP2;ratioP2;P2;SDS_P1;SDS_P2;PMS_P1;PMS_P2;Temp;Humidity;BMP_temperature;BMP_pressure;BME280_temperature;BME280_humidity;BME280_pressure;Samples;Min_cycle;Max_cycle;Signal;HPM_P1;HPM_P2
2021/08/04 00:02:11;;;;;;;12.03;6.00;;;;;;;22.28;55.35;101143.13;5111079;28;20257;-59
2021/08/04 00:04:36;;;;;;;11.57;5.63;;;;;;;22.20;55.56;101142.81;5111517;28;20183;-59
2021/08/04 00:07:02;;;;;;;13.97;6.10;;;;;;;21.83;56.03;101105.25;5111064;28;20179;-60
2021/08/04 00:09:28;;;;;;;7.87;5.87;;;;;;;22.02;55.91;101129.06;5111317;28;20202;-60
2021/08/04 00:11:53;;;;;;;7.80;5.67;;;;;;;22.22;55.42;101142.31;5111148;28;20182;-59
2021/08/04 00:14:19;;;;;;;9.30;5.63;;;;;;;21.98;56.21;101155.94;5111342;28;20185;-60
2021/08/04 00:16:44;;;;;;;9.50;5.50;;;;;;;21.30;57.08;101075.94;5111238;28;20369;-59
2021/08/04 00:19:10;;;;;;;9.60;5.60;;;;;;;21.37;56.47;101058.59;5092928;28;20182;-60
2021/08/04 00:21:35;;;;;;;7.27;4.83;;;;;;;21.77;57.17;101168.53;5111304;28;20232;-60
2021/08/04 00:24:01;;;;;;;7.20;5.00;;;;;;;21.59;57.60;101155.50;5111160;28;20177;-60
2021/08/04 00:26:26;;;;;;;11.13;5.20;;;;;;;21.79;57.12;101146.22;5111061;28;20648;-60
2021/08/04 00:28:52;;;;;;;9.33;5.33;;;;;;;21.94;57.03;101155.38;5110659;28;20198;-60
2021/08/04 00:31:17;;;;;;;10.13;5.00;;;;;;;21.86;57.15;101155.03;5110999;28;20178;-60
2021/08/04 00:33:43;;;;;;;6.83;4.83;;;;;;;20.97;56.94;101005.88;5092964;28;20176;-60
2021/08/04 00:36:08;;;;;;;8.93;5.00;;;;;;;21.56;56.59;101079.56;5110704;28;20178;-60
2021/08/04 00:38:34;;;;;;;6.47;5.20;;;;;;;22.09;56.69;101156.03;5092814;28;20178;-59
2021/08/04 00:41:00;;;;;;;8.03;4.80;;;;;;;21.51;56.44;101052.06;5110752;28;20174;-59
2021/08/04 00:43:25;;;;;;;9.00;5.40;;;;;;;22.19;56.01;101152.56;5110764;28;20230;-60
2021/08/04 00:45:51;;;;;;;9.70;5.40;;;;;;;22.19;56.30;101163.06;5110562;28;20182;-59
2021/08/04 00:48:17;;;;;;;7.20;5.40;;;;;;;22.14;56.47;101161.75;5110746;28;20607;-59
2021/08/04 00:50:43;;;;;;;8.90;5.27;;;;;;;21.97;56.87;101168.50;5110751;28;20193;-60
2021/08/04 00:53:25;;;;;;;6.57;5.03;;;;;;;22.04;56.69;101171.66;5110647;28;20628;-59
2021/08/04 00:55:52;;;;;;;7.63;4.93;;;;;;;22.03;56.59;101166.50;5110704;28;20658;-60
2021/08/04 00:58:21;;;;;;;7.77;5.50;;;;;;;21.90;57.09;101178.16;5111436;28;20204;-59
2021/08/04 01:01:12;;;;;;;8.40;5.13;;;;;;;21.94;56.88;101181.56;5115009;28;20182;-59
2021/08/04 01:03:48;;;;;;;9.10;5.30;;;;;;;21.87;56.91;101170.72;5115126;28;20163;-59
2021/08/04 01:06:26;;;;;;;7.53;4.87;;;;;;;21.32;56.84;101096.72;5114698;28;20166;-59
2021/08/04 01:08:56;;;;;;;7.27;5.43;;;;;;;21.83;57.20;101198.38;5114519;28;20694;-59
2021/08/04 01:11:25;;;;;;;14.20;5.67;;;;;;;21.79;57.43;101199.84;5114826;28;20251;-59
2021/08/04 01:13:53;;;;;;;8.70;5.47;;;;;;;21.77;57.45;101196.75;5114641;28;20174;-59
2021/08/04 01:16:25;;;;;;;7.23;5.10;;;;;;;20.48;57.96;101039.00;5114610;28;20585;-59
2021/08/04 01:19:02;;;;;;;10.70;5.47;;;;;;;21.48;58.21;101183.56;5114562;28;20189;-60
2021/08/04 01:21:47;;;;;;;11.80;5.70;;;;;;;21.48;58.26;101179.94;5114673;28;20655;-60
2021/08/04 01:24:19;;;;;;;7.73;5.97;;;;;;;21.49;58.23;101184.34;5114654;28;20554;-59
2021/08/04 01:26:47;;;;;;;9.40;5.63;;;;;;;21.47;58.11;101195.31;5114362;28;20182;-60
2021/08/04 01:29:24;;;;;;;7.77;5.83;;;;;;;21.47;58.19;101192.50;5114245;28;20197;-59
2021/08/04 01:31:54;;;;;;;9.53;5.03;;;;;;;21.46;58.20;101196.59;5114236;28;20219;-59
2021/08/04 01:34:20;;;;;;;8.90;6.00;;;;;;;21.49;58.16;101189.97;5114524;28;20174;-59
2021/08/04 01:36:47;;;;;;;6.47;5.10;;;;;;;20.58;57.88;101035.53;5114524;28;20216;-60
2021/08/04 01:39:14;;;;;;;8.97;5.20;;;;;;;21.54;57.90;101186.47;5114633;28;20648;-59
2021/08/04 01:41:41;;;;;;;8.63;5.03;;;;;;;21.48;57.93;101183.56;5114179;28;20174;-60
2021/08/04 01:44:08;;;;;;;8.73;5.00;;;;;;;21.44;57.93;101202.72;5113985;28;20226;-60
2021/08/04 01:46:34;;;;;;;6.53;5.00;;;;;;;21.54;57.82;101186.47;5095594;28;20170;-60
2021/08/04 01:49:02;;;;;;;9.17;5.17;;;;;;;21.58;57.83;101192.63;5113870;28;20201;-59
2021/08/04 01:51:29;;;;;;;8.10;5.40;;;;;;;21.58;57.84;101184.19;5114018;28;20659;-59
2021/08/04 01:53:56;;;;;;;8.67;5.00;;;;;;;21.55;57.90;101188.00;5113940;28;20177;-59
2021/08/04 01:56:22;;;;;;;9.20;5.00;;;;;;;21.51;58.18;101190.25;5113853;28;20694;-59
2021/08/04 01:58:47;;;;;;;6.77;4.80;;;;;;;21.35;58.03;101159.81;5113854;28;20175;-59
2021/08/04 02:01:13;;;;;;;7.40;4.40;;;;;;;21.54;57.89;101178.75;5113865;28;20226;-60
2021/08/04 02:03:39;;;;;;;8.47;5.10;;;;;;;21.43;57.82;101166.56;5113906;28;20451;-60
2021/08/04 02:06:20;;;;;;;10.27;5.97;;;;;;;21.30;58.13;101186.66;5095111;28;20182;-59
2021/08/04 02:09:10;;;;;;;10.83;5.27;;;;;;;21.17;58.71;101186.22;5113643;28;20193;-60
2021/08/04 02:11:52;;;;;;;11.43;5.80;;;;;;;21.18;58.60;101196.22;5111874;28;20224;-60
2021/08/04 02:14:42;;;;;;;13.80;6.03;;;;;;;21.19;58.63;101189.31;5113739;28;20339;-60
2021/08/04 02:17:12;;;;;;;8.33;5.50;;;;;;;21.19;58.76;101192.13;5113221;28;20617;-59
2021/08/04 02:19:58;;;;;;;12.20;5.47;;;;;;;21.19;58.61;101200.59;5113697;28;20201;-59
2021/08/04 02:23:00;;;;;;;14.10;5.93;;;;;;;21.14;58.59;101209.75;5113728;28;20162;-59
2021/08/04 02:25:34;;;;;;;6.87;5.10;;;;;;;21.01;58.74;101197.25;5113582;28;20673;-59
2021/08/04 02:28:02;;;;;;;11.60;5.40;;;;;;;20.90;58.79;101177.38;5113466;28;20198;-59
2021/08/04 02:30:30;;;;;;;9.10;6.07;;;;;;;21.07;58.86;101209.38;5112897;28;20208;-59
2021/08/04 02:32:56;;;;;;;9.27;6.20;;;;;;;20.04;58.77;101050.31;5113118;28;20189;-59
2021/08/04 02:35:22;;;;;;;8.63;5.90;;;;;;;20.26;58.75;101087.28;5113356;28;20186;-59
2021/08/04 02:37:48;;;;;;;8.40;5.50;;;;;;;20.41;58.78;101126.69;5112909;28;20234;-60
2021/08/04 02:40:15;;;;;;;9.90;5.90;;;;;;;21.00;58.81;101223.88;5113522;28;20640;-59
2021/08/04 02:42:42;;;;;;;10.97;6.00;;;;;;;20.93;59.08;101222.25;5112981;28;20230;-59
2021/08/04 02:45:08;;;;;;;11.40;5.63;;;;;;;20.82;59.00;101210.03;5112716;28;20186;-59
2021/08/04 02:47:34;;;;;;;8.87;5.70;;;;;;;20.95;59.01;101230.22;5112817;28;20257;-59
2021/08/04 02:50:03;;;;;;;9.40;5.33;;;;;;;20.89;59.17;101223.69;5094678;28;20189;-60
2021/08/04 02:52:29;;;;;;;7.43;5.13;;;;;;;20.66;58.95;101231.00;5112715;28;20190;-59
2021/08/04 02:54:54;;;;;;;9.20;5.67;;;;;;;20.66;59.24;101230.22;5112786;28;20618;-60
2021/08/04 02:57:20;;;;;;;10.20;7.47;;;;;;;20.35;59.47;101196.94;5112679;28;20181;-59
2021/08/04 02:59:45;;;;;;;9.97;7.77;;;;;;;20.68;59.63;101236.16;5112458;28;20206;-59
2021/08/04 03:02:11;;;;;;;12.00;7.43;;;;;;;20.51;59.89;101229.44;5112955;28;20185;-59
2021/08/04 03:04:36;;;;;;;9.83;5.93;;;;;;;20.39;60.17;101233.34;5112724;28;20269;-59
2021/08/04 03:07:02;;;;;;;12.10;6.50;;;;;;;20.32;60.34;101226.06;5112272;28;20652;-59
2021/08/04 03:09:28;;;;;;;14.83;7.40;;;;;;;20.15;60.50;101241.88;5112540;28;20201;-59
2021/08/04 03:11:53;;;;;;;12.80;7.87;;;;;;;20.11;61.09;101249.72;5112308;28;20178;-59
2021/08/04 03:14:19;;;;;;;8.90;6.53;;;;;;;20.17;60.53;101247.03;5112461;28;20550;-59
2021/08/04 03:16:45;;;;;;;12.37;7.07;;;;;;;20.18;60.52;101251.38;5093945;28;20174;-59
2021/08/04 03:19:11;;;;;;;11.00;7.27;;;;;;;20.01;61.04;101250.28;5112252;28;20628;-59
2021/08/04 03:21:36;;;;;;;10.70;6.97;;;;;;;19.83;61.29;101236.34;5112255;28;20177;-59
2021/08/04 03:24:02;;;;;;;8.73;7.13;;;;;;;19.93;61.03;101247.03;5112210;28;20209;-59
2021/08/04 03:26:28;;;;;;;11.10;6.63;;;;;;;20.05;60.76;101260.06;5112151;28;20262;-59
2021/08/04 03:28:53;;;;;;;8.87;6.30;;;;;;;20.07;60.82;101237.06;5111390;28;20198;-59
2021/08/04 03:31:18;;;;;;;11.73;6.97;;;;;;;19.98;60.93;101223.88;5112167;28;20189;-59
2021/08/04 03:33:44;;;;;;;11.03;7.60;;;;;;;20.04;60.74;101250.06;5112481;28;20209;-59
2021/08/04 03:36:09;;;;;;;12.47;7.30;;;;;;;20.11;61.05;101246.91;5111718;28;20174;-60
2021/08/04 03:38:35;;;;;;;14.30;8.00;;;;;;;19.79;60.74;101193.56;5112140;28;20590;-59
2021/08/04 03:41:00;;;;;;;15.73;7.40;;;;;;;20.21;60.60;101248.38;5111880;28;20181;-59
2021/08/04 03:43:26;;;;;;;10.37;6.67;;;;;;;20.36;60.51;101254.78;5111562;28;20749;-59
2021/08/04 03:45:51;;;;;;;10.60;6.50;;;;;;;20.33;59.89;101257.81;5111558;28;20185;-59
2021/08/04 03:48:17;;;;;;;8.70;6.33;;;;;;;20.28;59.76;101248.00;5111850;28;20247;-59
2021/08/04 03:50:42;;;;;;;9.60;6.47;;;;;;;20.37;59.86;101258.41;5111758;28;20185;-59
2021/08/04 03:53:08;;;;;;;12.00;7.50;;;;;;;20.40;60.21;101254.59;5111644;28;20788;-59
2021/08/04 03:55:33;;;;;;;10.83;6.10;;;;;;;20.46;60.06;101261.88;5111517;28;20181;-59
2021/08/04 03:57:59;;;;;;;8.87;6.37;;;;;;;20.52;59.80;101251.50;5111295;28;20559;-59
2021/08/04 04:00:24;;;;;;;9.10;6.37;;;;;;;20.50;59.79;101256.84;5111401;28;20189;-59
2021/08/04 04:02:50;;;;;;;14.13;6.43;;;;;;;20.59;59.99;101258.78;5111579;28;20189;-59
2021/08/04 04:05:15;;;;;;;16.37;6.33;;;;;;;20.30;60.02;101208.88;5111609;28;20178;-59
2021/08/04 04:07:41;;;;;;;13.57;6.80;;;;;;;20.70;59.91;101259.75;5110989;28;20724;-59
2021/08/04 04:10:07;;;;;;;11.73;6.20;;;;;;;20.76;59.56;101268.28;5110921;28;20733;-60
2021/08/04 04:12:33;;;;;;;13.50;6.53;;;;;;;20.84;59.50;101275.88;5111245;28;20205;-59
2021/08/04 04:14:59;;;;;;;14.17;7.00;;;;;;;20.84;59.31;101278.69;5111122;28;20227;-59
2021/08/04 04:17:24;;;;;;;10.87;6.90;;;;;;;20.92;59.25;101295.97;5111683;28;20178;-60
2021/08/04 04:19:50;;;;;;;11.40;7.33;;;;;;;20.57;59.04;101239.56;5111271;28;20227;-59
2021/08/04 04:22:16;;;;;;;11.57;7.07;;;;;;;21.03;58.82;101304.63;5111365;28;20182;-59
2021/08/04 04:24:41;;;;;;;12.30;7.30;;;;;;;21.02;58.83;101301.03;5111250;28;20180;-60
2021/08/04 04:27:07;;;;;;;9.97;6.90;;;;;;;19.72;59.95;101175.03;5110797;28;20297;-59
2021/08/04 04:29:32;;;;;;;11.60;7.00;;;;;;;20.05;60.47;101231.94;5110886;28;20277;-59
2021/08/04 04:31:58;;;;;;;10.77;7.20;;;;;;;20.35;61.26;101305.94;5110904;28;20264;-59
2021/08/04 04:34:23;;;;;;;12.33;6.93;;;;;;;20.14;61.05;101254.41;5110683;28;20274;-59
2021/08/04 04:36:49;;;;;;;11.83;7.07;;;;;;;20.56;61.06;101302.78;5110593;28;20239;-59
2021/08/04 04:39:14;;;;;;;11.50;7.20;;;;;;;20.64;61.18;101303.16;5100597;28;20197;-59
2021/08/04 04:41:40;;;;;;;10.27;7.13;;;;;;;20.61;61.44;101306.94;5098760;28;20574;-59
2021/08/04 04:44:05;;;;;;;11.83;6.83;;;;;;;20.58;61.91;101305.88;5115555;28;20316;-60
2021/08/04 04:46:31;;;;;;;12.33;7.20;;;;;;;20.72;61.47;101304.34;5113824;28;20231;-60
2021/08/04 04:48:56;;;;;;;10.77;6.37;;;;;;;20.73;61.46;101291.81;5093039;28;20210;-59
2021/08/04 04:51:22;;;;;;;12.77;6.83;;;;;;;21.13;60.96;101318.13;5101560;28;20186;-59
2021/08/04 04:53:47;;;;;;;13.70;7.00;;;;;;;20.85;60.53;101254.09;5105852;28;20207;-59
2021/08/04 04:56:13;;;;;;;14.27;7.37;;;;;;;21.31;60.12;101317.13;5109507;28;20178;-59
2021/08/04 04:58:38;;;;;;;12.63;6.90;;;;;;;20.78;60.26;101221.47;5110345;28;20181;-59
2021/08/04 05:01:04;;;;;;;11.90;6.63;;;;;;;21.63;60.17;101321.69;5096840;28;20193;-59
2021/08/04 05:03:29;;;;;;;11.23;7.20;;;;;;;21.81;59.70;101316.56;5108456;28;20205;-59
2021/08/04 05:05:55;;;;;;;12.07;7.20;;;;;;;21.99;59.26;101321.16;5107146;28;20300;-60
2021/08/04 05:08:20;;;;;;;11.33;6.70;;;;;;;22.17;58.90;101318.84;5090054;28;20238;-59
2021/08/04 05:10:45;;;;;;;14.67;7.03;;;;;;;22.26;58.93;101318.66;5107232;28;20182;-60
2021/08/04 05:13:11;;;;;;;14.37;7.40;;;;;;;22.28;58.43;101302.03;5107778;28;20182;-59
2021/08/04 05:15:36;;;;;;;14.13;7.00;;;;;;;22.66;58.13;101341.22;5090261;28;20190;-63
2021/08/04 05:18:02;;;;;;;12.37;7.63;;;;;;;22.33;58.21;101267.44;5109273;28;20182;-60
2021/08/04 05:20:30;;;;;;;12.00;7.23;;;;;;;22.35;58.01;101249.97;5108083;28;20261;-60
2021/08/04 05:22:55;;;;;;;12.40;6.73;;;;;;;22.63;57.42;101260.28;5109039;28;20539;-59
2021/08/04 05:25:21;;;;;;;14.77;7.17;;;;;;;22.93;57.44;101301.13;5109423;28;20273;-59
2021/08/04 05:27:48;;;;;;;8.70;7.20;;;;;;;23.13;56.96;101329.31;5090319;28;20211;-65
2021/08/04 05:30:14;;;;;;;15.37;7.23;;;;;;;23.31;56.90;101342.31;5108161;28;20201;-65
2021/08/04 05:32:40;;;;;;;9.23;7.07;;;;;;;22.89;56.89;101266.69;5107083;28;20603;-59
2021/08/04 05:35:06;;;;;;;11.20;6.90;;;;;;;23.59;56.77;101346.91;5107269;28;20216;-59
2021/08/04 05:37:32;;;;;;;13.03;7.50;;;;;;;23.74;55.80;101347.50;5108300;28;20193;-60
2021/08/04 05:39:57;;;;;;;18.20;7.43;;;;;;;23.90;55.25;101346.84;5108752;28;20178;-60
2021/08/04 05:42:23;;;;;;;14.87;7.27;;;;;;;24.08;55.30;101360.59;5107511;28;20218;-60
2021/08/04 05:44:48;;;;;;;14.43;6.87;;;;;;;24.15;54.52;101359.34;5108641;28;20182;-59
2021/08/04 05:47:15;;;;;;;12.47;7.23;;;;;;;24.16;54.51;101346.72;5112142;28;20190;-60
2021/08/04 05:49:41;;;;;;;15.53;7.37;;;;;;;24.40;54.03;101358.38;5111992;28;20209;-60
2021/08/04 05:52:07;;;;;;;11.63;7.17;;;;;;;24.56;53.95;101369.00;5111467;28;20183;-60
2021/08/04 05:54:32;;;;;;;12.50;7.00;;;;;;;24.73;53.87;101384.00;5111693;28;20189;-59
2021/08/04 05:56:57;;;;;;;12.67;6.73;;;;;;;24.84;52.94;101381.97;5111825;28;20266;-60
2021/08/04 05:59:23;;;;;;;12.57;7.30;;;;;;;25.01;53.08;101388.44;5111032;28;20204;-59
2021/08/04 06:01:48;;;;;;;8.37;6.97;;;;;;;25.18;52.33;101382.78;5111929;28;20265;-60
2021/08/04 06:04:14;;;;;;;11.50;6.60;;;;;;;25.28;52.20;101372.75;5109995;28;20192;-59
2021/08/04 06:06:39;;;;;;;12.73;7.10;;;;;;;25.39;51.65;101384.09;5111740;28;20231;-60
2021/08/04 06:09:06;;;;;;;15.83;7.07;;;;;;;25.53;51.98;101394.41;5111235;28;20203;-60
2021/08/04 06:11:32;;;;;;;13.13;7.53;;;;;;;25.34;52.62;101396.22;5092778;28;20675;-60
2021/08/04 06:13:57;;;;;;;11.73;7.13;;;;;;;25.55;52.18;101394.66;5112191;28;20183;-59
2021/08/04 06:16:23;;;;;;;8.37;6.67;;;;;;;25.64;51.96;101392.31;5111967;28;20185;-59
2021/08/04 06:18:48;;;;;;;9.33;7.17;;;;;;;25.77;51.87;101391.78;5112327;28;20174;-59
2021/08/04 06:21:14;;;;;;;10.03;7.50;;;;;;;25.80;51.92;101394.34;5109932;28;20607;-59
2021/08/04 06:23:39;;;;;;;16.00;7.60;;;;;;;25.92;52.05;101389.44;5111409;28;20183;-60
2021/08/04 06:26:05;;;;;;;11.23;6.97;;;;;;;26.13;50.88;101384.97;5110963;28;20265;-60
2021/08/04 06:28:30;;;;;;;10.87;7.53;;;;;;;26.10;51.30;101360.47;5111619;28;20243;-59
2021/08/04 06:30:56;;;;;;;10.20;7.30;;;;;;;26.42;50.93;101398.56;5110947;28;20552;-59
2021/08/04 06:33:21;;;;;;;11.50;7.47;;;;;;;26.50;50.34;101388.97;5111253;28;20644;-60
2021/08/04 06:35:46;;;;;;;9.97;6.60;;;;;;;26.62;49.65;101392.56;5112037;28;20186;-60
2021/08/04 06:38:12;;;;;;;9.60;7.07;;;;;;;26.48;50.40;101394.41;5110784;28;20608;-60
2021/08/04 06:40:37;;;;;;;9.57;7.17;;;;;;;26.30;51.09;101357.28;5110937;28;20182;-59
2021/08/04 06:43:04;;;;;;;12.40;7.77;;;;;;;26.65;50.60;101400.00;5110660;28;20239;-60
2021/08/04 06:45:29;;;;;;;12.10;7.20;;;;;;;26.65;50.57;101397.16;5111136;28;20198;-59
2021/08/04 06:47:55;;;;;;;8.87;6.90;;;;;;;26.78;50.05;101394.53;5111222;28;20584;-59
2021/08/04 06:50:20;;;;;;;9.47;6.97;;;;;;;26.88;49.71;101378.69;5113971;27;20185;-65
2021/08/04 06:52:46;;;;;;;11.20;7.10;;;;;;;26.97;50.06;101389.75;5110576;28;20178;-65
2021/08/04 06:55:11;;;;;;;11.13;6.03;;;;;;;27.06;50.25;101370.28;5109930;28;20239;-65
2021/08/04 06:57:37;;;;;;;10.70;6.60;;;;;;;27.24;50.04;101389.56;5109436;28;20687;-65
2021/08/04 07:00:03;;;;;;;12.77;6.35;;;;;;;27.44;49.57;101377.72;5109880;28;20174;-65
2021/08/04 07:02:29;;;;;;;10.50;6.72;;;;;;;27.68;49.03;101383.44;5110029;28;20186;-65
2021/08/04 07:04:54;;;;;;;11.27;6.82;;;;;;;27.90;48.90;101391.78;5110513;28;20189;-65
2021/08/04 07:07:20;;;;;;;14.55;7.00;;;;;;;28.03;49.01;101386.22;5110630;28;20213;-64
2021/08/04 07:09:45;;;;;;;12.32;6.63;;;;;;;28.16;47.51;101377.78;5109048;28;20228;-64
2021/08/04 07:12:11;;;;;;;10.43;6.93;;;;;;;28.27;46.25;101380.47;5108409;28;20174;-65
2021/08/04 07:14:40;;;;;;;12.20;6.72;;;;;;;27.81;46.70;101311.63;5110391;28;20174;-65
2021/08/04 07:17:05;;;;;;;9.73;6.75;;;;;;;28.37;47.35;101387.34;5110034;28;20656;-65
2021/08/04 07:19:31;;;;;;;10.63;7.60;;;;;;;28.27;47.00;101376.84;5109770;28;20265;-65
2021/08/04 07:21:57;;;;;;;13.48;7.18;;;;;;;28.11;47.41;101352.97;5109648;28;20235;-65
2021/08/04 07:24:22;;;;;;;9.80;7.10;;;;;;;28.27;47.85;101374.78;5110261;28;20606;-65
2021/08/04 07:26:49;;;;;;;14.50;7.10;;;;;;;28.23;47.64;101367.81;5109041;28;20691;-65
2021/08/04 07:29:15;;;;;;;8.63;6.90;;;;;;;28.17;48.22;101361.44;5108926;28;20206;-60
2021/08/04 07:31:41;;;;;;;10.43;6.57;;;;;;;28.22;48.32;101363.44;5109187;28;20721;-59
2021/08/04 07:34:08;;;;;;;8.03;7.03;;;;;;;28.17;47.81;101365.06;5109285;28;20674;-60
2021/08/04 07:36:34;;;;;;;11.07;6.50;;;;;;;28.16;48.34;101382.69;5107947;28;20213;-59
2021/08/04 07:39:00;;;;;;;10.63;7.20;;;;;;;27.72;48.78;101337.59;5108873;28;20179;-60
2021/08/04 07:41:25;;;;;;;9.93;6.70;;;;;;;27.73;48.91;101342.75;5093355;27;20217;-59
2021/08/04 07:43:51;;;;;;;12.50;7.40;;;;;;;27.94;49.22;101360.16;5109414;27;20291;-60
2021/08/04 07:46:18;;;;;;;12.67;7.17;;;;;;;28.07;48.76;101366.75;5105806;27;20555;-60
2021/08/04 07:48:48;;;;;;;10.07;7.00;;;;;;;28.02;48.75;101355.41;5108639;28;20197;-60
2021/08/04 07:51:14;;;;;;;11.52;7.28;;;;;;;27.50;49.20;101289.44;5096647;28;20218;-60
2021/08/04 07:53:39;;;;;;;13.10;6.38;;;;;;;28.05;48.76;101368.59;5109784;28;20184;-59
2021/08/04 07:56:05;;;;;;;10.23;6.60;;;;;;;27.53;48.44;101266.34;5109725;28;20186;-60
2021/08/04 07:58:30;;;;;;;12.15;6.82;;;;;;;28.38;48.04;101360.41;5109686;28;20623;-60
2021/08/04 08:00:56;;;;;;;10.63;6.82;;;;;;;28.54;47.74;101362.25;5109350;28;20182;-60
2021/08/04 08:03:21;;;;;;;12.95;6.78;;;;;;;28.46;47.92;101332.06;5109856;28;20701;-60
2021/08/04 08:05:47;;;;;;;10.23;6.28;;;;;;;28.64;45.19;101357.72;5109041;28;20273;-65
2021/08/04 08:08:13;;;;;;;8.10;5.95;;;;;;;28.47;46.55;101362.88;5108120;28;20210;-66
2021/08/04 08:10:41;;;;;;;8.02;6.20;;;;;;;28.65;45.21;101353.53;5108007;28;20186;-66
2021/08/04 08:13:07;;;;;;;12.07;6.68;;;;;;;28.45;44.97;101345.53;5108291;28;20209;-66
2021/08/04 08:15:33;;;;;;;9.77;6.28;;;;;;;28.40;46.15;101345.63;5108989;28;20182;-66
2021/08/04 08:18:05;;;;;;;8.40;6.05;;;;;;;28.04;45.43;101295.81;5109773;28;20198;-65
2021/08/04 08:20:31;;;;;;;9.07;6.10;;;;;;;27.98;45.80;101281.63;5105068;28;20640;-65
2021/08/04 08:22:56;;;;;;;9.13;6.40;;;;;;;28.40;46.41;101342.78;5107572;28;20190;-66
2021/08/04 08:25:22;;;;;;;10.73;6.25;;;;;;;28.51;46.69;101328.34;5110369;27;20182;-59
2021/08/04 08:27:48;;;;;;;9.00;6.10;;;;;;;28.20;44.87;101252.81;5107039;28;20181;-65
2021/08/04 08:30:14;;;;;;;8.32;5.75;;;;;;;28.96;44.79;101341.38;5108635;28;20190;-65
2021/08/04 08:32:40;;;;;;;10.25;6.45;;;;;;;29.15;44.50;101349.91;5107547;28;20174;-65
2021/08/04 08:35:07;;;;;;;8.52;5.70;;;;;;;29.22;43.88;101341.50;5108394;28;20185;-65
2021/08/04 08:37:33;;;;;;;9.43;6.43;;;;;;;29.37;43.27;101350.31;5108887;28;20184;-64
2021/08/04 08:39:59;;;;;;;7.97;6.15;;;;;;;29.35;43.42;101326.47;5106824;28;20189;-65
2021/08/04 08:42:24;;;;;;;7.35;5.57;;;;;;;29.47;42.48;101339.22;5108205;28;20262;-65
2021/08/04 08:44:50;;;;;;;7.25;5.45;;;;;;;29.62;42.34;101334.56;5110185;28;20186;-65
2021/08/04 08:47:16;;;;;;;9.10;5.70;;;;;;;29.73;42.46;101327.88;5104315;28;20178;-65
2021/08/04 08:49:43;;;;;;;6.65;5.75;;;;;;;29.76;41.59;101333.25;5108469;28;20209;-65
2021/08/04 08:52:09;;;;;;;7.15;5.57;;;;;;;29.88;41.32;101314.56;5107206;28;20274;-64
2021/08/04 08:54:35;;;;;;;9.82;5.80;;;;;;;30.16;41.60;101325.44;5108071;28;20185;-65
2021/08/04 08:57:01;;;;;;;8.27;5.68;;;;;;;30.34;42.68;101331.00;5109744;28;20207;-65
2021/08/04 08:59:27;;;;;;;10.50;6.00;;;;;;;30.21;40.65;101318.84;5108296;28;20187;-65
2021/08/04 09:01:52;;;;;;;10.75;5.80;;;;;;;30.43;40.11;101326.91;5108294;28;20188;-59
2021/08/04 09:04:18;;;;;;;10.80;5.50;;;;;;;30.49;39.68;101325.47;5109932;28;20608;-60
2021/08/04 09:06:53;;;;;;;6.93;5.32;;;;;;;30.43;40.41;101324.06;5252117;22;20275;-65
2021/08/04 09:09:21;;;;;;;9.35;5.35;;;;;;;30.63;39.19;101318.38;5006825;28;20240;-65
2021/08/04 09:11:59;;;;;;;9.13;5.93;;;;;;;30.76;39.13;101312.63;5007556;28;20733;-65
2021/08/04 09:14:30;;;;;;;9.23;5.30;;;;;;;30.44;39.02;101236.94;5004801;28;20192;-64
2021/08/04 09:16:59;;;;;;;6.15;4.90;;;;;;;30.87;36.63;101306.63;5011801;28;20824;-65
2021/08/04 09:19:25;;;;;;;7.82;4.90;;;;;;;30.99;36.30;101307.91;5010975;28;20644;-64
2021/08/04 09:22:06;;;;;;;9.07;5.05;;;;;;;31.06;36.18;101303.59;5010253;28;20200;-64
2021/08/04 09:24:56;;;;;;;10.65;5.13;;;;;;;31.20;36.60;101299.31;5011833;28;20302;-64
2021/08/04 09:27:46;;;;;;;6.45;5.03;;;;;;;31.33;36.83;101302.88;4995710;28;20182;-64
2021/08/04 09:30:15;;;;;;;6.95;4.50;;;;;;;31.27;36.89;101282.19;5009614;28;20184;-64
2021/08/04 09:32:41;;;;;;;7.25;4.93;;;;;;;31.41;36.13;101282.88;5011565;28;20264;-64
2021/08/04 09:35:10;;;;;;;7.28;4.60;;;;;;;31.69;35.50;101294.34;5011368;28;20269;-64
2021/08/04 09:37:35;;;;;;;6.18;4.55;;;;;;;31.74;35.97;101271.28;5013225;28;20466;-65
2021/08/04 09:40:02;;;;;;;10.10;5.05;;;;;;;32.07;35.04;101286.72;5012138;28;20578;-63
2021/08/04 09:42:54;;;;;;;7.55;4.65;;;;;;;32.20;33.81;101273.00;5011462;28;20192;-64
2021/08/04 09:45:24;;;;;;;9.93;4.68;;;;;;;32.07;34.63;101258.03;5006385;28;20721;-64
2021/08/04 09:47:59;;;;;;;8.05;4.68;;;;;;;32.19;33.60;101270.72;5011359;28;20198;-65
2021/08/04 09:50:25;;;;;;;5.65;4.72;;;;;;;32.21;33.87;101271.69;5010975;28;20219;-64
2021/08/04 09:52:52;;;;;;;7.45;4.78;;;;;;;32.23;34.04;101271.88;5011391;28;20189;-65
2021/08/04 09:55:19;;;;;;;6.18;4.63;;;;;;;32.07;33.70;101246.56;5011388;28;20725;-65
2021/08/04 09:57:47;;;;;;;8.27;5.05;;;;;;;32.30;33.86;101262.56;5014132;28;20255;-64
2021/08/04 10:00:15;;;;;;;11.65;4.93;;;;;;;32.34;33.90;101253.59;4989704;28;20649;-64
2021/08/04 10:02:41;;;;;;;7.95;4.80;;;;;;;32.61;34.21;101255.53;5012574;28;20189;-65
2021/08/04 10:05:15;;;;;;;6.38;4.15;;;;;;;32.63;30.05;101227.06;5012762;28;20255;-64
2021/08/04 10:08:07;;;;;;;9.48;4.63;;;;;;;33.14;30.40;101253.50;5010025;28;20611;-64
2021/08/04 10:10:34;;;;;;;6.40;4.35;;;;;;;33.34;30.20;101243.16;5007944;28;20640;-64
2021/08/04 10:13:02;;;;;;;7.53;5.05;;;;;;;33.34;33.79;101252.56;5010462;28;20189;-64
2021/08/04 10:15:30;;;;;;;7.70;4.45;;;;;;;33.18;32.73;101199.31;4993052;28;20569;-65
2021/08/04 10:17:56;;;;;;;8.80;4.75;;;;;;;33.58;31.27;101233.94;5007681;28;20217;-65
2021/08/04 10:20:22;;;;;;;6.93;4.68;;;;;;;33.84;32.17;101236.34;4993843;28;20266;-64
2021/08/04 10:22:49;;;;;;;5.63;4.28;;;;;;;33.99;31.02;101237.03;5010516;28;20173;-65
2021/08/04 10:25:15;;;;;;;8.10;4.38;;;;;;;34.04;30.43;101233.19;4988228;28;20300;-64
2021/08/04 10:27:40;;;;;;;9.93;4.22;;;;;;;34.05;27.84;101231.84;5012161;28;20264;-64
2021/08/04 10:30:08;;;;;;;7.80;4.15;;;;;;;33.33;26.39;101184.94;5010768;28;20194;-63
2021/08/04 10:32:34;;;;;;;9.77;3.80;;;;;;;33.70;27.08;101229.28;5013451;28;20194;-64
2021/08/04 10:35:00;;;;;;;5.25;3.90;;;;;;;33.75;26.11;101222.56;4992856;28;20189;-64
2021/08/04 10:37:26;;;;;;;5.82;3.92;;;;;;;33.70;25.97;101223.53;5010295;28;20228;-63
2021/08/04 10:39:54;;;;;;;6.78;4.03;;;;;;;33.81;25.24;101205.88;5012857;28;20217;-63
2021/08/04 10:42:37;;;;;;;5.93;3.50;;;;;;;33.98;26.66;101206.00;4993166;28;20223;-64
2021/08/04 10:45:22;;;;;;;5.38;3.67;;;;;;;34.30;26.06;101208.91;4984599;28;20181;-64
2021/08/04 10:47:51;;;;;;;7.47;3.60;;;;;;;34.49;26.13;101207.06;5010172;28;20671;-63
2021/08/04 10:50:17;;;;;;;4.70;3.38;;;;;;;34.57;26.38;101207.78;5010740;28;20182;-64
2021/08/04 10:52:58;;;;;;;7.15;4.03;;;;;;;34.42;24.87;101193.50;5011807;28;20196;-64
2021/08/04 10:55:24;;;;;;;4.20;3.58;;;;;;;33.84;25.19;101106.97;5007459;28;20181;-63
2021/08/04 10:58:08;;;;;;;8.27;3.70;;;;;;;34.54;25.79;101190.91;5009714;28;20193;-64
2021/08/04 11:00:36;;;;;;;5.15;3.53;;;;;;;34.69;25.18;101159.88;5011098;28;20228;-64
2021/08/04 11:03:30;;;;;;;4.20;2.60;;;;;;;34.65;24.43;101179.69;5009585;28;20183;-64
2021/08/04 11:06:07;;;;;;;7.25;3.08;;;;;;;34.81;24.66;101165.97;4983832;28;20197;-64
2021/08/04 11:08:32;;;;;;;8.07;3.03;;;;;;;34.79;23.39;101180.94;4996749;28;20225;-63
2021/08/04 11:10:58;;;;;;;5.03;3.30;;;;;;;34.85;22.58;101167.06;4990576;28;20309;-64
2021/08/04 11:13:44;;;;;;;5.38;2.88;;;;;;;34.98;23.36;101165.97;5002888;28;20200;-64
2021/08/04 11:16:35;;;;;;;3.90;3.10;;;;;;;35.18;23.31;101168.47;4985149;28;20212;-64
2021/08/04 11:19:04;;;;;;;4.93;3.13;;;;;;;35.05;22.66;101156.47;4980043;28;20294;-64
2021/08/04 11:21:29;;;;;;;7.55;3.83;;;;;;;35.11;23.04;101159.91;4994852;28;20232;-63
2021/08/04 11:23:56;;;;;;;5.35;3.40;;;;;;;35.33;23.12;101151.03;4994911;28;20205;-63
2021/08/04 11:26:28;;;;;;;4.78;2.80;;;;;;;35.22;22.17;101127.72;4994639;28;20189;-63